sensor_id;sensor_type;location;lat;lon;timestamp;P1;durP1;ratioP1;P2;durP2;ratioP2
43994;SDS011;51687;52.160;5.298;2024-02-16T00:00:58;3.33;;;2.30;;
43994;SDS011;51687;52.160;5.298;2024-02-16T00:03:26;4.83;;;3.03;;
43994;SDS011;51687;52.160;5.298;2024-02-16T00:05:54;4.18;;;3.00;;
43994;SDS011;51687;52.160;5.298;2024-02-16T00:08:21;6.15;;;2.65;;
43994;SDS011;51687;52.160;5.298;2024-02-16T00:10:48;5.05;;;2.75;;
43994;SDS011;51687;52.160;5.298;2024-02-16T00:13:15;3.80;;;3.30;;
43994;SDS011;51687;52.160;5.298;2024-02-16T00:15:42;6.70;;;3.58;;
43994;SDS011;51687;52.160;5.298;2024-02-16T00:18:09;5.35;;;3.10;;
43994;SDS011;51687;52.160;5.298;2024-02-16T00:20:36;6.95;;;2.90;;
43994;SDS011;51687;52.160;5.298;2024-02-16T00:23:03;3.47;;;2.70;;
43994;SDS011;51687;52.160;5.298;2024-02-16T00:25:30;4.65;;;3.03;;
43994;SDS011;51687;52.160;5.298;2024-02-16T00:27:58;4.82;;;3.17;;
43994;SDS011;51687;52.160;5.298;2024-02-16T00:30:26;6.95;;;3.65;;
43994;SDS011;51687;52.160;5.298;2024-02-16T00:32:54;6.90;;;2.90;;
43994;SDS011;51687;52.160;5.298;2024-02-16T00:35:21;3.33;;;3.03;;
43994;SDS011;51687;52.160;5.298;2024-02-16T00:37:48;3.38;;;2.70;;
43994;SDS011;51687;52.160;5.298;2024-02-16T00:40:15;6.93;;;3.30;;
43994;SDS011;51687;52.160;5.298;2024-02-16T00:42:42;3.45;;;2.83;;
43994;SDS011;51687;52.160;5.298;2024-02-16T00:45:09;4.78;;;3.38;;
43994;SDS011;51687;52.160;5.298;2024-02-16T00:47:37;4.57;;;3.15;;
43994;SDS011;51687;52.160;5.298;2024-02-16T00:50:06;5.38;;;3.35;;
43994;SDS011;51687;52.160;5.298;2024-02-16T00:52:35;5.80;;;3.35;;
43994;SDS011;51687;52.160;5.298;2024-02-16T00:55:03;4.78;;;2.85;;
43994;SDS011;51687;52.160;5.298;2024-02-16T00:57:30;4.28;;;3.05;;
43994;SDS011;51687;52.160;5.298;2024-02-16T00:59:57;5.40;;;2.78;;
43994;SDS011;51687;52.160;5.298;2024-02-16T01:02:24;3.63;;;2.50;;
43994;SDS011;51687;52.160;5.298;2024-02-16T01:04:56;4.75;;;2.75;;
43994;SDS011;51687;52.160;5.298;2024-02-16T01:07:28;3.40;;;2.22;;
43994;SDS011;51687;52.160;5.298;2024-02-16T01:09:57;4.75;;;2.38;;
43994;SDS011;51687;52.160;5.298;2024-02-16T01:12:24;4.38;;;2.45;;
43994;SDS011;51687;52.160;5.298;2024-02-16T01:14:51;4.07;;;2.72;;
43994;SDS011;51687;52.160;5.298;2024-02-16T01:17:18;5.45;;;3.55;;
43994;SDS011;51687;52.160;5.298;2024-02-16T01:19:45;4.70;;;2.78;;
43994;SDS011;51687;52.160;5.298;2024-02-16T01:22:13;3.60;;;2.70;;
43994;SDS011;51687;52.160;5.298;2024-02-16T01:24:40;3.75;;;3.42;;
43994;SDS011;51687;52.160;5.298;2024-02-16T01:27:07;4.82;;;3.35;;
43994;SDS011;51687;52.160;5.298;2024-02-16T01:29:33;6.32;;;3.22;;
43994;SDS011;51687;52.160;5.298;2024-02-16T01:32:00;6.10;;;3.20;;
43994;SDS011;51687;52.160;5.298;2024-02-16T01:34:28;3.05;;;2.75;;
43994;SDS011;51687;52.160;5.298;2024-02-16T01:36:56;6.75;;;3.47;;
43994;SDS011;51687;52.160;5.298;2024-02-16T01:39:23;5.32;;;3.13;;
43994;SDS011;51687;52.160;5.298;2024-02-16T01:41:50;4.15;;;2.83;;
43994;SDS011;51687;52.160;5.298;2024-02-16T01:44:17;5.20;;;3.00;;
43994;SDS011;51687;52.160;5.298;2024-02-16T01:46:44;8.98;;;2.78;;
43994;SDS011;51687;52.160;5.298;2024-02-16T01:49:11;4.97;;;2.83;;
43994;SDS011;51687;52.160;5.298;2024-02-16T01:51:42;6.90;;;3.10;;
43994;SDS011;51687;52.160;5.298;2024-02-16T01:54:11;7.00;;;3.00;;
43994;SDS011;51687;52.160;5.298;2024-02-16T01:56:38;4.45;;;2.72;;
43994;SDS011;51687;52.160;5.298;2024-02-16T01:59:06;4.65;;;2.75;;
43994;SDS011;51687;52.160;5.298;2024-02-16T02:01:32;5.03;;;2.80;;
43994;SDS011;51687;52.160;5.298;2024-02-16T02:04:00;6.97;;;2.90;;
43994;SDS011;51687;52.160;5.298;2024-02-16T02:06:27;4.80;;;2.78;;
43994;SDS011;51687;52.160;5.298;2024-02-16T02:08:54;3.97;;;2.80;;
43994;SDS011;51687;52.160;5.298;2024-02-16T02:11:21;3.03;;;2.50;;
43994;SDS011;51687;52.160;5.298;2024-02-16T02:13:48;3.60;;;2.65;;
43994;SDS011;51687;52.160;5.298;2024-02-16T02:16:16;5.38;;;3.13;;
43994;SDS011;51687;52.160;5.298;2024-02-16T02:18:45;2.97;;;2.47;;
43994;SDS011;51687;52.160;5.298;2024-02-16T02:21:12;4.13;;;3.15;;
43994;SDS011;51687;52.160;5.298;2024-02-16T02:23:41;3.65;;;2.78;;
43994;SDS011;51687;52.160;5.298;2024-02-16T02:26:07;4.38;;;3.33;;
43994;SDS011;51687;52.160;5.298;2024-02-16T02:28:34;3.85;;;3.22;;
43994;SDS011;51687;52.160;5.298;2024-02-16T02:31:01;3.58;;;2.75;;
43994;SDS011;51687;52.160;5.298;2024-02-16T02:33:29;4.18;;;2.85;;
43994;SDS011;51687;52.160;5.298;2024-02-16T02:35:56;3.40;;;2.92;;
43994;SDS011;51687;52.160;5.298;2024-02-16T02:38:23;5.40;;;3.45;;
43994;SDS011;51687;52.160;5.298;2024-02-16T02:40:50;3.70;;;2.97;;
43994;SDS011;51687;52.160;5.298;2024-02-16T02:43:18;5.00;;;3.25;;
43994;SDS011;51687;52.160;5.298;2024-02-16T02:45:48;6.57;;;3.00;;
43994;SDS011;51687;52.160;5.298;2024-02-16T02:48:17;5.78;;;3.42;;
43994;SDS011;51687;52.160;5.298;2024-02-16T02:50:44;3.78;;;3.25;;
43994;SDS011;51687;52.160;5.298;2024-02-16T02:53:11;8.40;;;3.40;;
43994;SDS011;51687;52.160;5.298;2024-02-16T02:55:38;3.85;;;3.20;;
43994;SDS011;51687;52.160;5.298;2024-02-16T02:58:05;3.55;;;3.10;;
43994;SDS011;51687;52.160;5.298;2024-02-16T03:00:32;4.70;;;3.13;;
43994;SDS011;51687;52.160;5.298;2024-02-16T03:02:59;4.05;;;3.58;;
43994;SDS011;51687;52.160;5.298;2024-02-16T03:05:26;5.65;;;2.72;;
43994;SDS011;51687;52.160;5.298;2024-02-16T03:07:53;4.63;;;3.42;;
43994;SDS011;51687;52.160;5.298;2024-02-16T03:10:21;4.63;;;3.30;;
43994;SDS011;51687;52.160;5.298;2024-02-16T03:12:51;5.20;;;3.08;;
43994;SDS011;51687;52.160;5.298;2024-02-16T03:15:18;3.93;;;3.27;;
43994;SDS011;51687;52.160;5.298;2024-02-16T03:17:44;4.43;;;2.88;;
43994;SDS011;51687;52.160;5.298;2024-02-16T03:20:11;3.63;;;2.90;;
43994;SDS011;51687;52.160;5.298;2024-02-16T03:22:38;5.32;;;2.55;;
43994;SDS011;51687;52.160;5.298;2024-02-16T03:25:05;3.22;;;2.92;;
43994;SDS011;51687;52.160;5.298;2024-02-16T03:27:32;4.95;;;3.22;;
43994;SDS011;51687;52.160;5.298;2024-02-16T03:30:00;6.47;;;3.40;;
43994;SDS011;51687;52.160;5.298;2024-02-16T03:32:28;5.65;;;3.10;;
43994;SDS011;51687;52.160;5.298;2024-02-16T03:34:56;3.25;;;2.70;;
43994;SDS011;51687;52.160;5.298;2024-02-16T03:37:24;3.15;;;2.65;;
43994;SDS011;51687;52.160;5.298;2024-02-16T03:39:52;5.35;;;3.33;;
43994;SDS011;51687;52.160;5.298;2024-02-16T03:42:19;3.83;;;3.17;;
43994;SDS011;51687;52.160;5.298;2024-02-16T03:44:47;4.82;;;3.42;;
43994;SDS011;51687;52.160;5.298;2024-02-16T03:47:14;3.20;;;2.83;;
43994;SDS011;51687;52.160;5.298;2024-02-16T03:49:42;4.57;;;2.95;;
43994;SDS011;51687;52.160;5.298;2024-02-16T03:52:09;4.55;;;3.38;;
43994;SDS011;51687;52.160;5.298;2024-02-16T03:54:36;3.25;;;2.95;;
43994;SDS011;51687;52.160;5.298;2024-02-16T03:57:03;4.95;;;2.80;;
43994;SDS011;51687;52.160;5.298;2024-02-16T03:59:32;4.18;;;3.25;;
43994;SDS011;51687;52.160;5.298;2024-02-16T04:02:00;3.38;;;3.05;;
43994;SDS011;51687;52.160;5.298;2024-02-16T04:04:27;4.50;;;3.20;;
43994;SDS011;51687;52.160;5.298;2024-02-16T04:06:55;5.60;;;2.78;;
43994;SDS011;51687;52.160;5.298;2024-02-16T04:09:22;5.43;;;3.40;;
43994;SDS011;51687;52.160;5.298;2024-02-16T04:11:49;4.30;;;3.25;;
43994;SDS011;51687;52.160;5.298;2024-02-16T04:14:17;4.57;;;3.58;;
43994;SDS011;51687;52.160;5.298;2024-02-16T04:16:44;5.57;;;3.80;;
43994;SDS011;51687;52.160;5.298;2024-02-16T04:19:11;8.40;;;3.58;;
43994;SDS011;51687;52.160;5.298;2024-02-16T04:21:38;6.65;;;3.15;;
43994;SDS011;51687;52.160;5.298;2024-02-16T04:24:05;6.53;;;3.53;;
43994;SDS011;51687;52.160;5.298;2024-02-16T04:26:32;5.07;;;3.13;;
43994;SDS011;51687;52.160;5.298;2024-02-16T04:28:59;5.15;;;3.30;;
43994;SDS011;51687;52.160;5.298;2024-02-16T04:31:26;5.38;;;2.97;;
43994;SDS011;51687;52.160;5.298;2024-02-16T04:33:53;4.32;;;3.20;;
43994;SDS011;51687;52.160;5.298;2024-02-16T04:36:20;8.20;;;3.25;;
43994;SDS011;51687;52.160;5.298;2024-02-16T04:38:47;3.80;;;3.20;;
43994;SDS011;51687;52.160;5.298;2024-02-16T04:41:15;4.22;;;3.33;;
43994;SDS011;51687;52.160;5.298;2024-02-16T04:43:42;9.77;;;3.50;;
43994;SDS011;51687;52.160;5.298;2024-02-16T04:46:13;4.13;;;3.10;;
43994;SDS011;51687;52.160;5.298;2024-02-16T04:48:41;4.03;;;3.50;;
43994;SDS011;51687;52.160;5.298;2024-02-16T04:51:10;5.50;;;3.33;;
43994;SDS011;51687;52.160;5.298;2024-02-16T04:53:37;4.60;;;3.15;;
43994;SDS011;51687;52.160;5.298;2024-02-16T04:56:05;4.45;;;3.17;;
43994;SDS011;51687;52.160;5.298;2024-02-16T04:58:33;3.33;;;2.78;;
43994;SDS011;51687;52.160;5.298;2024-02-16T05:01:00;3.60;;;2.83;;
43994;SDS011;51687;52.160;5.298;2024-02-16T05:03:27;4.10;;;3.35;;
43994;SDS011;51687;52.160;5.298;2024-02-16T05:05:54;4.15;;;2.90;;
43994;SDS011;51687;52.160;5.298;2024-02-16T05:08:22;3.92;;;3.45;;
43994;SDS011;51687;52.160;5.298;2024-02-16T05:10:50;4.20;;;3.35;;
43994;SDS011;51687;52.160;5.298;2024-02-16T05:13:17;5.13;;;3.35;;
43994;SDS011;51687;52.160;5.298;2024-02-16T05:15:44;4.53;;;3.15;;
43994;SDS011;51687;52.160;5.298;2024-02-16T05:18:11;4.50;;;3.40;;
43994;SDS011;51687;52.160;5.298;2024-02-16T05:20:39;3.90;;;2.88;;
43994;SDS011;51687;52.160;5.298;2024-02-16T05:23:06;5.07;;;3.45;;
43994;SDS011;51687;52.160;5.298;2024-02-16T05:25:33;4.22;;;3.08;;
43994;SDS011;51687;52.160;5.298;2024-02-16T05:28:00;4.00;;;2.75;;
43994;SDS011;51687;52.160;5.298;2024-02-16T05:30:28;4.97;;;3.70;;
43994;SDS011;51687;52.160;5.298;2024-02-16T05:32:55;3.75;;;3.08;;
43994;SDS011;51687;52.160;5.298;2024-02-16T05:35:25;4.53;;;3.28;;
43994;SDS011;51687;52.160;5.298;2024-02-16T05:37:55;4.28;;;3.75;;
43994;SDS011;51687;52.160;5.298;2024-02-16T05:40:21;4.63;;;2.92;;
43994;SDS011;51687;52.160;5.298;2024-02-16T05:42:51;5.53;;;3.40;;
43994;SDS011;51687;52.160;5.298;2024-02-16T05:45:18;4.10;;;3.25;;
43994;SDS011;51687;52.160;5.298;2024-02-16T05:47:45;3.97;;;3.38;;
43994;SDS011;51687;52.160;5.298;2024-02-16T05:50:13;7.40;;;3.50;;
43994;SDS011;51687;52.160;5.298;2024-02-16T05:52:40;3.67;;;3.00;;
43994;SDS011;51687;52.160;5.298;2024-02-16T05:55:08;6.60;;;3.47;;
43994;SDS011;51687;52.160;5.298;2024-02-16T05:57:36;4.25;;;3.53;;
43994;SDS011;51687;52.160;5.298;2024-02-16T06:00:04;4.47;;;3.33;;
43994;SDS011;51687;52.160;5.298;2024-02-16T06:02:32;5.25;;;3.33;;
43994;SDS011;51687;52.160;5.298;2024-02-16T06:05:00;3.83;;;3.13;;
43994;SDS011;51687;52.160;5.298;2024-02-16T06:07:27;3.35;;;2.92;;
43994;SDS011;51687;52.160;5.298;2024-02-16T06:09:57;5.93;;;3.30;;
43994;SDS011;51687;52.160;5.298;2024-02-16T06:12:24;3.97;;;3.05;;
43994;SDS011;51687;52.160;5.298;2024-02-16T06:14:51;4.93;;;3.83;;
43994;SDS011;51687;52.160;5.298;2024-02-16T06:17:21;4.75;;;2.90;;
43994;SDS011;51687;52.160;5.298;2024-02-16T06:19:47;4.97;;;3.50;;
43994;SDS011;51687;52.160;5.298;2024-02-16T06:22:15;4.72;;;3.30;;
43994;SDS011;51687;52.160;5.298;2024-02-16T06:24:41;6.53;;;3.88;;
43994;SDS011;51687;52.160;5.298;2024-02-16T06:27:13;4.32;;;3.50;;
43994;SDS011;51687;52.160;5.298;2024-02-16T06:29:40;4.93;;;3.10;;
43994;SDS011;51687;52.160;5.298;2024-02-16T06:32:07;5.15;;;3.15;;
43994;SDS011;51687;52.160;5.298;2024-02-16T06:34:33;5.40;;;3.50;;
43994;SDS011;51687;52.160;5.298;2024-02-16T06:37:00;4.78;;;3.45;;
43994;SDS011;51687;52.160;5.298;2024-02-16T06:39:27;3.65;;;3.20;;
43994;SDS011;51687;52.160;5.298;2024-02-16T06:41:56;6.57;;;3.50;;
43994;SDS011;51687;52.160;5.298;2024-02-16T06:44:23;5.38;;;3.42;;
43994;SDS011;51687;52.160;5.298;2024-02-16T06:46:50;4.10;;;3.25;;
43994;SDS011;51687;52.160;5.298;2024-02-16T06:49:17;4.60;;;3.70;;
43994;SDS011;51687;52.160;5.298;2024-02-16T06:51:44;5.38;;;3.75;;
43994;SDS011;51687;52.160;5.298;2024-02-16T06:54:11;5.85;;;4.15;;
43994;SDS011;51687;52.160;5.298;2024-02-16T06:56:38;3.85;;;3.30;;
43994;SDS011;51687;52.160;5.298;2024-02-16T06:59:05;4.00;;;3.63;;
43994;SDS011;51687;52.160;5.298;2024-02-16T07:01:32;4.05;;;3.63;;
43994;SDS011;51687;52.160;5.298;2024-02-16T07:03:59;4.78;;;3.67;;
43994;SDS011;51687;52.160;5.298;2024-02-16T07:06:28;5.13;;;3.58;;
43994;SDS011;51687;52.160;5.298;2024-02-16T07:08:55;4.95;;;3.47;;
43994;SDS011;51687;52.160;5.298;2024-02-16T07:11:22;5.00;;;3.75;;
43994;SDS011;51687;52.160;5.298;2024-02-16T07:13:49;5.15;;;3.80;;
43994;SDS011;51687;52.160;5.298;2024-02-16T07:16:16;5.43;;;3.67;;
43994;SDS011;51687;52.160;5.298;2024-02-16T07:18:44;3.97;;;3.47;;
43994;SDS011;51687;52.160;5.298;2024-02-16T07:21:12;8.02;;;4.63;;
43994;SDS011;51687;52.160;5.298;2024-02-16T07:23:39;6.43;;;3.65;;
43994;SDS011;51687;52.160;5.298;2024-02-16T07:26:06;5.10;;;4.03;;
43994;SDS011;51687;52.160;5.298;2024-02-16T07:28:34;3.92;;;3.45;;
43994;SDS011;51687;52.160;5.298;2024-02-16T07:31:01;5.22;;;3.88;;
43994;SDS011;51687;52.160;5.298;2024-02-16T07:33:29;4.70;;;3.88;;
43994;SDS011;51687;52.160;5.298;2024-02-16T07:35:56;4.85;;;3.45;;
43994;SDS011;51687;52.160;5.298;2024-02-16T07:38:24;5.03;;;4.15;;
43994;SDS011;51687;52.160;5.298;2024-02-16T07:40:51;4.85;;;4.20;;
43994;SDS011;51687;52.160;5.298;2024-02-16T07:43:18;4.88;;;4.28;;
43994;SDS011;51687;52.160;5.298;2024-02-16T07:45:45;4.45;;;3.55;;
43994;SDS011;51687;52.160;5.298;2024-02-16T07:48:13;4.78;;;3.92;;
43994;SDS011;51687;52.160;5.298;2024-02-16T07:50:40;4.72;;;3.70;;
43994;SDS011;51687;52.160;5.298;2024-02-16T07:53:08;5.03;;;3.92;;
43994;SDS011;51687;52.160;5.298;2024-02-16T07:55:37;4.75;;;4.32;;
43994;SDS011;51687;52.160;5.298;2024-02-16T07:58:04;6.78;;;3.90;;
43994;SDS011;51687;52.160;5.298;2024-02-16T08:00:31;5.30;;;4.15;;
43994;SDS011;51687;52.160;5.298;2024-02-16T08:02:58;7.50;;;4.22;;
43994;SDS011;51687;52.160;5.298;2024-02-16T08:05:25;5.28;;;4.43;;
43994;SDS011;51687;52.160;5.298;2024-02-16T08:07:53;9.48;;;4.30;;
43994;SDS011;51687;52.160;5.298;2024-02-16T08:10:20;6.40;;;4.00;;
43994;SDS011;51687;52.160;5.298;2024-02-16T08:12:48;5.03;;;4.53;;
43994;SDS011;51687;52.160;5.298;2024-02-16T08:15:19;4.13;;;3.55;;
43994;SDS011;51687;52.160;5.298;2024-02-16T08:17:55;6.70;;;4.60;;
43994;SDS011;51687;52.160;5.298;2024-02-16T08:20:23;7.05;;;4.45;;
43994;SDS011;51687;52.160;5.298;2024-02-16T08:22:50;4.70;;;4.20;;
43994;SDS011;51687;52.160;5.298;2024-02-16T08:25:17;5.38;;;4.38;;
43994;SDS011;51687;52.160;5.298;2024-02-16T08:27:43;8.75;;;4.43;;
43994;SDS011;51687;52.160;5.298;2024-02-16T08:30:10;5.78;;;4.65;;
43994;SDS011;51687;52.160;5.298;2024-02-16T08:32:38;6.28;;;5.03;;
43994;SDS011;51687;52.160;5.298;2024-02-16T08:35:06;5.22;;;4.72;;
43994;SDS011;51687;52.160;5.298;2024-02-16T08:37:33;8.63;;;5.35;;
43994;SDS011;51687;52.160;5.298;2024-02-16T08:40:00;5.72;;;4.82;;
43994;SDS011;51687;52.160;5.298;2024-02-16T08:42:27;6.40;;;4.67;;
43994;SDS011;51687;52.160;5.298;2024-02-16T08:44:54;6.18;;;4.93;;
43994;SDS011;51687;52.160;5.298;2024-02-16T08:47:21;5.90;;;5.13;;
43994;SDS011;51687;52.160;5.298;2024-02-16T08:49:48;5.55;;;4.95;;
43994;SDS011;51687;52.160;5.298;2024-02-16T08:52:15;7.13;;;5.25;;
43994;SDS011;51687;52.160;5.298;2024-02-16T08:54:42;7.72;;;4.90;;
43994;SDS011;51687;52.160;5.298;2024-02-16T08:57:10;9.43;;;5.20;;
43994;SDS011;51687;52.160;5.298;2024-02-16T08:59:38;6.85;;;5.07;;
43994;SDS011;51687;52.160;5.298;2024-02-16T09:02:05;7.65;;;5.05;;
43994;SDS011;51687;52.160;5.298;2024-02-16T09:04:32;7.53;;;4.53;;
43994;SDS011;51687;52.160;5.298;2024-02-16T09:06:59;7.20;;;5.30;;
43994;SDS011;51687;52.160;5.298;2024-02-16T09:09:27;6.20;;;5.45;;
43994;SDS011;51687;52.160;5.298;2024-02-16T09:11:54;6.17;;;4.93;;
43994;SDS011;51687;52.160;5.298;2024-02-16T09:14:21;6.65;;;5.32;;
43994;SDS011;51687;52.160;5.298;2024-02-16T09:16:49;6.40;;;4.78;;
43994;SDS011;51687;52.160;5.298;2024-02-16T09:19:19;6.70;;;5.45;;
43994;SDS011;51687;52.160;5.298;2024-02-16T09:21:46;6.82;;;5.55;;
43994;SDS011;51687;52.160;5.298;2024-02-16T09:24:13;6.45;;;5.45;;
43994;SDS011;51687;52.160;5.298;2024-02-16T09:26:45;15.32;;;5.78;;
43994;SDS011;51687;52.160;5.298;2024-02-16T09:29:15;6.68;;;5.57;;
43994;SDS011;51687;52.160;5.298;2024-02-16T09:31:42;7.07;;;6.38;;
43994;SDS011;51687;52.160;5.298;2024-02-16T09:34:09;8.85;;;6.97;;
43994;SDS011;51687;52.160;5.298;2024-02-16T09:36:36;6.50;;;5.75;;
43994;SDS011;51687;52.160;5.298;2024-02-16T09:39:03;9.20;;;6.70;;
43994;SDS011;51687;52.160;5.298;2024-02-16T09:41:32;7.25;;;6.20;;
43994;SDS011;51687;52.160;5.298;2024-02-16T09:44:04;6.93;;;6.18;;
43994;SDS011;51687;52.160;5.298;2024-02-16T09:46:31;7.32;;;6.25;;
43994;SDS011;51687;52.160;5.298;2024-02-16T09:49:02;7.43;;;6.70;;
43994;SDS011;51687;52.160;5.298;2024-02-16T09:51:30;7.65;;;6.82;;
43994;SDS011;51687;52.160;5.298;2024-02-16T09:53:58;8.15;;;6.82;;
43994;SDS011;51687;52.160;5.298;2024-02-16T09:58:53;10.50;;;6.45;;
43994;SDS011;51687;52.160;5.298;2024-02-16T10:01:23;8.02;;;7.22;;
43994;SDS011;51687;52.160;5.298;2024-02-16T10:03:51;6.70;;;5.93;;
43994;SDS011;51687;52.160;5.298;2024-02-16T10:06:17;7.80;;;6.43;;
43994;SDS011;51687;52.160;5.298;2024-02-16T10:08:52;9.85;;;6.32;;
43994;SDS011;51687;52.160;5.298;2024-02-16T10:11:20;8.52;;;6.40;;
43994;SDS011;51687;52.160;5.298;2024-02-16T10:14:08;9.88;;;7.40;;
43994;SDS011;51687;52.160;5.298;2024-02-16T10:16:36;8.05;;;7.03;;
43994;SDS011;51687;52.160;5.298;2024-02-16T10:19:06;8.50;;;7.60;;
43994;SDS011;51687;52.160;5.298;2024-02-16T10:21:40;8.68;;;7.10;;
43994;SDS011;51687;52.160;5.298;2024-02-16T10:24:07;8.52;;;7.65;;
43994;SDS011;51687;52.160;5.298;2024-02-16T10:26:36;12.60;;;8.48;;
43994;SDS011;51687;52.160;5.298;2024-02-16T10:29:04;9.10;;;8.20;;
43994;SDS011;51687;52.160;5.298;2024-02-16T10:31:33;13.07;;;8.63;;
43994;SDS011;51687;52.160;5.298;2024-02-16T10:34:01;14.13;;;8.80;;
43994;SDS011;51687;52.160;5.298;2024-02-16T10:36:34;10.88;;;9.15;;
43994;SDS011;51687;52.160;5.298;2024-02-16T10:39:03;12.13;;;9.07;;
43994;SDS011;51687;52.160;5.298;2024-02-16T10:41:35;12.93;;;9.75;;
43994;SDS011;51687;52.160;5.298;2024-02-16T10:44:04;10.43;;;9.40;;
43994;SDS011;51687;52.160;5.298;2024-02-16T10:46:32;12.15;;;9.32;;
43994;SDS011;51687;52.160;5.298;2024-02-16T10:48:59;11.57;;;10.45;;
43994;SDS011;51687;52.160;5.298;2024-02-16T10:54:05;16.00;;;11.15;;
43994;SDS011;51687;52.160;5.298;2024-02-16T10:56:34;12.73;;;11.23;;
43994;SDS011;51687;52.160;5.298;2024-02-16T10:59:02;18.63;;;12.70;;
43994;SDS011;51687;52.160;5.298;2024-02-16T11:01:41;14.20;;;12.77;;
43994;SDS011;51687;52.160;5.298;2024-02-16T11:04:16;17.25;;;12.88;;
43994;SDS011;51687;52.160;5.298;2024-02-16T11:07:01;16.00;;;14.02;;
43994;SDS011;51687;52.160;5.298;2024-02-16T11:09:38;19.85;;;14.82;;
43994;SDS011;51687;52.160;5.298;2024-02-16T11:12:06;18.02;;;16.13;;
43994;SDS011;51687;52.160;5.298;2024-02-16T11:14:43;19.40;;;15.15;;
43994;SDS011;51687;52.160;5.298;2024-02-16T11:17:22;21.90;;;16.05;;
43994;SDS011;51687;52.160;5.298;2024-02-16T11:19:50;24.55;;;17.02;;
43994;SDS011;51687;52.160;5.298;2024-02-16T11:22:21;17.50;;;15.55;;
43994;SDS011;51687;52.160;5.298;2024-02-16T11:24:58;21.98;;;16.65;;
43994;SDS011;51687;52.160;5.298;2024-02-16T11:27:36;24.05;;;16.17;;
43994;SDS011;51687;52.160;5.298;2024-02-16T11:30:04;21.58;;;16.10;;
43994;SDS011;51687;52.160;5.298;2024-02-16T11:32:32;17.77;;;15.87;;
43994;SDS011;51687;52.160;5.298;2024-02-16T11:35:04;20.70;;;15.75;;
43994;SDS011;51687;52.160;5.298;2024-02-16T11:37:33;19.65;;;16.83;;
43994;SDS011;51687;52.160;5.298;2024-02-16T11:40:00;21.20;;;17.08;;
43994;SDS011;51687;52.160;5.298;2024-02-16T11:42:27;24.40;;;15.45;;
43994;SDS011;51687;52.160;5.298;2024-02-16T11:44:55;20.13;;;15.32;;
43994;SDS011;51687;52.160;5.298;2024-02-16T11:47:23;26.90;;;16.77;;
43994;SDS011;51687;52.160;5.298;2024-02-16T11:50:07;23.48;;;17.13;;
43994;SDS011;51687;52.160;5.298;2024-02-16T11:52:38;23.13;;;16.00;;
43994;SDS011;51687;52.160;5.298;2024-02-16T11:55:09;25.20;;;16.63;;
43994;SDS011;51687;52.160;5.298;2024-02-16T11:57:37;24.50;;;17.70;;
43994;SDS011;51687;52.160;5.298;2024-02-16T12:00:05;21.75;;;16.08;;
43994;SDS011;51687;52.160;5.298;2024-02-16T12:02:41;18.63;;;16.65;;
43994;SDS011;51687;52.160;5.298;2024-02-16T12:05:08;20.13;;;15.07;;
43994;SDS011;51687;52.160;5.298;2024-02-16T12:07:39;18.58;;;15.10;;
43994;SDS011;51687;52.160;5.298;2024-02-16T12:10:07;18.98;;;13.98;;
43994;SDS011;51687;52.160;5.298;2024-02-16T12:12:35;17.23;;;11.85;;
43994;SDS011;51687;52.160;5.298;2024-02-16T12:15:04;13.85;;;11.75;;
43994;SDS011;51687;52.160;5.298;2024-02-16T12:17:32;12.60;;;11.27;;
43994;SDS011;51687;52.160;5.298;2024-02-16T12:19:59;13.40;;;10.90;;
43994;SDS011;51687;52.160;5.298;2024-02-16T12:22:27;9.57;;;8.63;;
43994;SDS011;51687;52.160;5.298;2024-02-16T12:24:54;8.82;;;6.95;;
43994;SDS011;51687;52.160;5.298;2024-02-16T12:27:25;6.80;;;6.20;;
43994;SDS011;51687;52.160;5.298;2024-02-16T12:29:52;7.05;;;6.35;;
43994;SDS011;51687;52.160;5.298;2024-02-16T12:32:19;6.72;;;6.10;;
43994;SDS011;51687;52.160;5.298;2024-02-16T12:34:47;6.72;;;6.13;;
43994;SDS011;51687;52.160;5.298;2024-02-16T12:37:15;6.88;;;5.85;;
43994;SDS011;51687;52.160;5.298;2024-02-16T12:39:44;6.82;;;6.18;;
43994;SDS011;51687;52.160;5.298;2024-02-16T12:42:12;5.53;;;5.05;;
43994;SDS011;51687;52.160;5.298;2024-02-16T12:44:40;6.10;;;5.50;;
43994;SDS011;51687;52.160;5.298;2024-02-16T12:47:07;5.57;;;5.18;;
43994;SDS011;51687;52.160;5.298;2024-02-16T12:49:35;5.70;;;5.30;;
43994;SDS011;51687;52.160;5.298;2024-02-16T12:52:02;5.35;;;4.95;;
43994;SDS011;51687;52.160;5.298;2024-02-16T12:54:29;5.57;;;5.10;;
43994;SDS011;51687;52.160;5.298;2024-02-16T12:56:58;4.93;;;4.47;;
43994;SDS011;51687;52.160;5.298;2024-02-16T12:59:25;5.63;;;5.22;;
43994;SDS011;51687;52.160;5.298;2024-02-16T13:01:52;5.93;;;5.38;;
43994;SDS011;51687;52.160;5.298;2024-02-16T13:04:19;5.93;;;5.43;;
43994;SDS011;51687;52.160;5.298;2024-02-16T13:06:48;5.55;;;5.05;;
43994;SDS011;51687;52.160;5.298;2024-02-16T13:09:16;5.40;;;5.00;;
43994;SDS011;51687;52.160;5.298;2024-02-16T13:11:48;5.73;;;5.27;;
43994;SDS011;51687;52.160;5.298;2024-02-16T13:14:21;5.30;;;4.80;;
43994;SDS011;51687;52.160;5.298;2024-02-16T13:16:48;6.45;;;5.85;;
43994;SDS011;51687;52.160;5.298;2024-02-16T13:19:16;5.00;;;4.60;;
43994;SDS011;51687;52.160;5.298;2024-02-16T13:24:11;5.00;;;4.57;;
43994;SDS011;51687;52.160;5.298;2024-02-16T13:26:39;6.57;;;4.80;;
43994;SDS011;51687;52.160;5.298;2024-02-16T13:29:06;4.93;;;4.45;;
43994;SDS011;51687;52.160;5.298;2024-02-16T13:31:35;5.90;;;5.20;;
43994;SDS011;51687;52.160;5.298;2024-02-16T13:34:03;4.90;;;4.45;;
43994;SDS011;51687;52.160;5.298;2024-02-16T13:36:30;7.05;;;5.20;;
43994;SDS011;51687;52.160;5.298;2024-02-16T13:38:57;4.65;;;4.25;;
43994;SDS011;51687;52.160;5.298;2024-02-16T13:41:26;4.95;;;3.97;;
43994;SDS011;51687;52.160;5.298;2024-02-16T13:43:53;4.07;;;3.72;;
43994;SDS011;51687;52.160;5.298;2024-02-16T13:46:20;4.72;;;3.58;;
43994;SDS011;51687;52.160;5.298;2024-02-16T13:48:48;7.07;;;3.67;;
43994;SDS011;51687;52.160;5.298;2024-02-16T13:51:16;4.47;;;3.40;;
43994;SDS011;51687;52.160;5.298;2024-02-16T13:53:43;5.22;;;3.53;;
43994;SDS011;51687;52.160;5.298;2024-02-16T13:56:11;4.38;;;3.97;;
43994;SDS011;51687;52.160;5.298;2024-02-16T14:01:12;4.30;;;3.90;;
43994;SDS011;51687;52.160;5.298;2024-02-16T14:03:39;5.82;;;5.28;;
43994;SDS011;51687;52.160;5.298;2024-02-16T14:06:06;5.03;;;4.55;;
43994;SDS011;51687;52.160;5.298;2024-02-16T14:08:36;8.85;;;4.97;;
43994;SDS011;51687;52.160;5.298;2024-02-16T14:11:03;5.45;;;4.93;;
43994;SDS011;51687;52.160;5.298;2024-02-16T14:13:30;5.78;;;5.18;;
43994;SDS011;51687;52.160;5.298;2024-02-16T14:15:58;5.57;;;5.05;;
43994;SDS011;51687;52.160;5.298;2024-02-16T14:18:25;5.35;;;4.93;;
43994;SDS011;51687;52.160;5.298;2024-02-16T14:21:01;5.68;;;5.22;;
43994;SDS011;51687;52.160;5.298;2024-02-16T14:23:29;7.20;;;5.28;;
43994;SDS011;51687;52.160;5.298;2024-02-16T14:25:58;7.17;;;6.57;;
43994;SDS011;51687;52.160;5.298;2024-02-16T14:30:54;6.63;;;6.13;;
43994;SDS011;51687;52.160;5.298;2024-02-16T14:33:21;5.38;;;4.93;;
43994;SDS011;51687;52.160;5.298;2024-02-16T14:36:00;6.18;;;5.63;;
43994;SDS011;51687;52.160;5.298;2024-02-16T14:38:27;6.32;;;5.70;;
43994;SDS011;51687;52.160;5.298;2024-02-16T14:40:54;5.65;;;5.10;;
43994;SDS011;51687;52.160;5.298;2024-02-16T14:43:22;5.97;;;5.55;;
43994;SDS011;51687;52.160;5.298;2024-02-16T14:45:49;6.75;;;6.05;;
43994;SDS011;51687;52.160;5.298;2024-02-16T14:48:16;6.55;;;5.93;;
43994;SDS011;51687;52.160;5.298;2024-02-16T14:50:44;4.97;;;4.57;;
43994;SDS011;51687;52.160;5.298;2024-02-16T14:53:11;5.03;;;4.57;;
43994;SDS011;51687;52.160;5.298;2024-02-16T14:55:38;6.40;;;5.90;;
43994;SDS011;51687;52.160;5.298;2024-02-16T14:58:06;5.88;;;5.38;;
43994;SDS011;51687;52.160;5.298;2024-02-16T15:00:33;6.13;;;5.57;;
43994;SDS011;51687;52.160;5.298;2024-02-16T15:03:02;6.10;;;5.60;;